La Reine, Canada
Current Conditions -  °F | °C
As of 4:00 AM on Saturday 20 Dec 2014 (Local Time) from CYUY Reporting Station
Haze Haze  
Wind Chill: -8°   Ceiling: 200
Heat Index: -8°   Visibility: 1mi
Dew Point: -11°   Wind: 2mph
Humidity: 84%   Direction: 100°E
Pressure: 30.27"   Gusts: NA
Location:  48.87°N, 79.5°W
Report Text: CYUY 200900Z 10002KT 1SM BR OVC002 M22/M24 A3027 RMK FG4SF4 SLP282
Loading
Personal Weather Stations






























Interactive Weather Map New forecast layout! Learn more

10-Day Weather Forecast

Advertisements
Track Severe Weather on mobile